Time;durP1;ratioP1;P1;durP2;ratioP2;P2;SDS_P1;SDS_P2;PMS_P1;PMS_P2;Temp;Humidity;BMP_temperature;BMP_pressure;BME280_temperature;BME280_humidity;BME280_pressure;Samples;Min_cycle;Max_cycle;Signal;HPM_P1;HPM_P2
2024/02/23 00:02:07;;;;;;;6.03;5.07;;;;;;;8.88;66.75;98347.72;5080567;28;20262;-62
2024/02/23 00:04:37;;;;;;;7.37;5.50;;;;;;;8.86;66.41;98339.22;5099297;28;20211;-62
2024/02/23 00:07:05;;;;;;;8.63;6.43;;;;;;;8.82;66.67;98340.22;5095548;28;20208;-62
2024/02/23 00:09:33;;;;;;;7.60;5.60;;;;;;;8.81;66.52;98341.09;5092772;28;20282;-61
2024/02/23 00:12:02;;;;;;;7.67;5.53;;;;;;;8.81;67.24;98335.97;5091660;28;20325;-60
2024/02/23 00:14:32;;;;;;;8.10;5.30;;;;;;;8.83;67.24;98345.28;5091911;28;20579;-61
2024/02/23 00:17:01;;;;;;;6.77;5.40;;;;;;;8.85;66.70;98332.41;5092101;28;20196;-58
2024/02/23 00:19:31;;;;;;;6.70;5.67;;;;;;;8.84;66.38;98338.44;5086196;28;20270;-60
2024/02/23 00:22:00;;;;;;;6.17;5.17;;;;;;;8.83;67.48;98332.44;5092098;28;20668;-61
2024/02/23 00:24:28;;;;;;;7.27;4.87;;;;;;;8.84;67.07;98336.72;5089383;28;20211;-61
2024/02/23 00:26:56;;;;;;;6.07;5.47;;;;;;;8.86;66.85;98340.06;5092169;28;20209;-60
2024/02/23 00:29:24;;;;;;;7.53;5.33;;;;;;;8.87;67.10;98330.63;5093293;28;20330;-65
2024/02/23 00:31:54;;;;;;;8.40;5.50;;;;;;;8.88;66.68;98330.59;5091682;28;20203;-61
2024/02/23 00:34:22;;;;;;;6.43;5.63;;;;;;;8.87;67.32;98336.63;5088314;28;20208;-61
2024/02/23 00:36:50;;;;;;;8.57;6.40;;;;;;;8.87;67.34;98331.47;5088563;28;20247;-62
2024/02/23 00:39:18;;;;;;;8.70;5.53;;;;;;;8.89;67.13;98334.00;5087930;28;20208;-64
2024/02/23 00:41:46;;;;;;;7.20;5.50;;;;;;;8.89;66.79;98329.69;5090607;28;20221;-60
2024/02/23 00:44:14;;;;;;;6.40;4.97;;;;;;;8.87;66.96;98326.34;5085852;28;20257;-60
2024/02/23 00:46:42;;;;;;;5.93;5.33;;;;;;;8.87;66.97;98322.91;5091914;28;20658;-60
2024/02/23 00:49:11;;;;;;;6.20;5.27;;;;;;;8.86;67.47;98321.25;5092266;28;20244;-62
2024/02/23 00:51:40;;;;;;;6.90;5.37;;;;;;;8.88;67.60;98309.19;5092689;28;20609;-60
2024/02/23 00:54:08;;;;;;;6.13;5.30;;;;;;;8.90;67.42;98315.13;5091669;28;20212;-58
2024/02/23 00:56:36;;;;;;;7.23;5.30;;;;;;;8.87;67.71;98315.22;5092459;28;20730;-60
2024/02/23 00:59:17;;;;;;;7.17;5.13;;;;;;;8.87;66.92;98310.94;5088228;28;20220;-62
2024/02/23 01:01:46;;;;;;;6.10;5.43;;;;;;;8.87;67.72;98304.94;5089627;28;20200;-62
2024/02/23 01:04:15;;;;;;;6.23;5.03;;;;;;;8.85;67.24;98291.31;5092346;28;20198;-62
2024/02/23 01:06:43;;;;;;;8.90;5.60;;;;;;;8.85;67.83;98293.88;5091485;28;20222;-61
2024/02/23 01:09:11;;;;;;;6.63;4.93;;;;;;;8.82;67.86;98296.56;5091426;28;20232;-62
2024/02/23 01:11:39;;;;;;;6.70;5.33;;;;;;;8.82;67.90;98283.72;5084964;28;20235;-60
2024/02/23 01:14:08;;;;;;;6.40;5.53;;;;;;;8.80;67.45;98299.19;5089736;28;20287;-61
2024/02/23 01:16:36;;;;;;;6.47;5.17;;;;;;;8.80;68.00;98285.47;5090795;28;20220;-64
2024/02/23 01:19:04;;;;;;;6.93;5.20;;;;;;;8.80;68.23;98288.03;5090157;28;20193;-62
2024/02/23 01:21:33;;;;;;;6.40;5.20;;;;;;;8.78;68.11;98285.53;5087150;28;20224;-60
2024/02/23 01:24:01;;;;;;;7.50;4.90;;;;;;;8.78;68.05;98292.41;5089991;28;20212;-61
2024/02/23 01:26:29;;;;;;;6.27;4.77;;;;;;;8.77;68.05;98283.03;5089481;28;20208;-59
2024/02/23 01:28:57;;;;;;;8.13;4.87;;;;;;;8.75;68.61;98274.53;5091046;28;20712;-60
2024/02/23 01:31:25;;;;;;;7.80;5.43;;;;;;;8.74;68.66;98278.00;5089274;28;20582;-59
2024/02/23 01:34:05;;;;;;;6.60;5.20;;;;;;;8.73;68.41;98292.56;5088587;28;20227;-65
2024/02/23 01:36:42;;;;;;;5.77;4.60;;;;;;;8.72;68.33;98285.72;5089087;28;20265;-64
2024/02/23 01:39:10;;;;;;;6.10;4.93;;;;;;;8.73;68.89;98286.56;5085999;28;20289;-61
2024/02/23 01:41:39;;;;;;;5.40;4.67;;;;;;;8.75;68.78;98282.22;5088636;28;20262;-60
2024/02/23 01:44:07;;;;;;;6.00;5.10;;;;;;;8.76;68.59;98286.47;5088834;28;20224;-61
2024/02/23 01:46:35;;;;;;;6.80;5.00;;;;;;;8.78;68.68;98289.84;5090473;28;20616;-61
2024/02/23 01:49:03;;;;;;;5.57;4.63;;;;;;;8.82;69.01;98296.56;5089313;28;20258;-61
2024/02/23 01:51:33;;;;;;;6.27;4.80;;;;;;;8.82;68.50;98286.28;5091861;28;20231;-64
2024/02/23 01:54:02;;;;;;;5.73;4.87;;;;;;;8.82;68.98;98292.25;5088529;28;20208;-62
2024/02/23 01:56:32;;;;;;;6.10;4.90;;;;;;;8.81;68.89;98277.75;5087193;28;20203;-60
2024/02/23 01:59:02;;;;;;;4.77;4.27;;;;;;;8.80;68.80;98288.91;5089202;28;20223;-61
2024/02/23 02:01:31;;;;;;;5.63;4.60;;;;;;;8.81;68.98;98274.34;5088449;28;20215;-60
2024/02/23 02:03:59;;;;;;;5.43;4.70;;;;;;;8.82;68.76;98264.00;5086139;28;20205;-62
2024/02/23 02:06:28;;;;;;;4.97;4.50;;;;;;;8.81;69.14;98284.59;5088381;28;20304;-61
2024/02/23 02:08:56;;;;;;;5.83;4.73;;;;;;;8.83;68.84;98286.22;5086536;28;20216;-61
2024/02/23 02:11:26;;;;;;;4.83;4.40;;;;;;;8.84;68.71;98276.81;5089990;28;20578;-60
2024/02/23 02:13:54;;;;;;;4.83;4.30;;;;;;;8.81;69.32;98271.78;5089708;28;20686;-61
2024/02/23 02:16:23;;;;;;;5.33;4.67;;;;;;;8.84;69.73;98263.97;5086692;28;20206;-61
2024/02/23 02:18:53;;;;;;;5.30;4.57;;;;;;;8.84;69.76;98262.25;5089317;28;20598;-62
2024/02/23 02:21:24;;;;;;;5.13;4.43;;;;;;;8.85;69.28;98265.63;5087285;28;20201;-60
2024/02/23 02:23:53;;;;;;;5.43;4.50;;;;;;;8.86;69.75;98263.00;5088031;28;20307;-61
2024/02/23 02:26:21;;;;;;;5.77;4.40;;;;;;;8.86;69.61;98257.03;5087786;28;20708;-60
2024/02/23 02:28:50;;;;;;;4.47;4.00;;;;;;;8.85;69.35;98250.22;5087860;28;20232;-60
2024/02/23 02:31:19;;;;;;;7.27;4.47;;;;;;;8.82;69.72;98255.47;5087563;28;20205;-61
2024/02/23 02:33:47;;;;;;;5.47;4.30;;;;;;;8.86;70.15;98257.88;5086711;28;20668;-60
2024/02/23 02:36:15;;;;;;;4.57;4.10;;;;;;;8.87;69.68;98251.00;5088525;28;20196;-60
2024/02/23 02:38:44;;;;;;;4.97;4.47;;;;;;;8.88;69.46;98252.69;5085822;28;20208;-59
2024/02/23 02:41:12;;;;;;;4.30;3.67;;;;;;;8.88;69.77;98252.69;5088599;28;20200;-60
2024/02/23 02:43:40;;;;;;;5.03;4.10;;;;;;;8.91;69.72;98255.13;5092856;28;20209;-62
2024/02/23 02:46:09;;;;;;;4.83;4.33;;;;;;;8.91;70.13;98250.88;5093048;28;20683;-61
2024/02/23 02:48:37;;;;;;;4.37;3.63;;;;;;;8.94;70.18;98247.34;5093065;28;20287;-64
2024/02/23 02:51:05;;;;;;;4.43;4.00;;;;;;;8.92;70.19;98251.69;5092722;28;20258;-61
2024/02/23 02:53:33;;;;;;;5.63;4.00;;;;;;;8.92;69.84;98260.25;5090300;28;20203;-62
2024/02/23 02:56:01;;;;;;;5.77;3.97;;;;;;;8.92;70.26;98252.53;5090889;28;20197;-63
2024/02/23 02:58:29;;;;;;;4.13;3.73;;;;;;;8.92;69.83;98254.28;5091704;28;20574;-59
2024/02/23 03:00:59;;;;;;;4.13;3.73;;;;;;;8.90;70.47;98254.31;5092722;28;20219;-61
2024/02/23 03:03:30;;;;;;;3.87;3.27;;;;;;;8.93;69.87;98259.34;5090635;28;20235;-60
2024/02/23 03:05:58;;;;;;;4.53;3.63;;;;;;;8.93;70.38;98253.38;5092465;28;20228;-59
2024/02/23 03:08:28;;;;;;;4.10;3.43;;;;;;;8.93;69.90;98255.94;5092506;28;20671;-63
2024/02/23 03:10:59;;;;;;;4.50;3.60;;;;;;;8.96;70.42;98260.97;5088972;28;20205;-61
2024/02/23 03:13:27;;;;;;;5.20;3.57;;;;;;;8.99;70.08;98257.47;5090321;28;20731;-64
2024/02/23 03:15:55;;;;;;;4.50;3.83;;;;;;;8.98;70.52;98266.88;5089502;28;20197;-61
2024/02/23 03:18:23;;;;;;;4.90;3.87;;;;;;;9.00;71.13;98267.69;5092090;28;20204;-61
2024/02/23 03:20:52;;;;;;;4.37;3.67;;;;;;;8.99;71.54;98273.72;5091961;28;20201;-62
2024/02/23 03:23:20;;;;;;;4.53;3.53;;;;;;;9.00;71.45;98270.25;5091801;28;20564;-61
2024/02/23 03:25:48;;;;;;;5.10;3.73;;;;;;;8.98;72.54;98272.03;5093430;28;20665;-62
2024/02/23 03:28:16;;;;;;;6.83;4.17;;;;;;;8.97;72.91;98275.50;5091780;28;20236;-61
2024/02/23 03:30:44;;;;;;;5.17;3.73;;;;;;;8.96;73.45;98286.66;5090571;28;20291;-62
2024/02/23 03:33:12;;;;;;;4.10;3.50;;;;;;;8.94;73.78;98293.56;5089462;28;20193;-60
2024/02/23 03:35:40;;;;;;;4.97;3.23;;;;;;;8.92;74.76;98287.66;5088120;28;20227;-64
2024/02/23 03:38:10;;;;;;;5.73;3.67;;;;;;;8.91;75.32;98291.97;5090732;28;20232;-61
2024/02/23 03:40:38;;;;;;;4.73;3.93;;;;;;;8.90;75.86;98289.44;5091829;28;20211;-61
2024/02/23 03:43:06;;;;;;;5.67;3.60;;;;;;;8.87;76.48;98284.38;5092562;28;20653;-63
2024/02/23 03:45:34;;;;;;;5.27;3.97;;;;;;;8.81;77.01;98282.88;5091247;28;20204;-61
2024/02/23 03:48:05;;;;;;;4.87;3.43;;;;;;;8.80;77.45;98285.47;5090209;28;20204;-61
2024/02/23 03:50:33;;;;;;;4.70;3.70;;;;;;;8.77;77.73;98294.13;5089103;28;20196;-64
2024/02/23 03:53:01;;;;;;;4.67;3.50;;;;;;;8.78;77.92;98302.69;5089921;28;20209;-58
2024/02/23 03:55:30;;;;;;;4.53;3.47;;;;;;;8.78;78.19;98294.97;5089790;28;20292;-59
2024/02/23 03:57:59;;;;;;;4.00;3.70;;;;;;;8.77;78.44;98313.84;5089780;28;20258;-61
2024/02/23 04:00:27;;;;;;;6.30;3.80;;;;;;;8.77;78.38;98304.41;5091291;28;20201;-62
2024/02/23 04:02:55;;;;;;;3.93;3.37;;;;;;;8.73;79.21;98307.97;5090910;28;20207;-60
2024/02/23 04:05:25;;;;;;;3.40;3.10;;;;;;;8.68;79.74;98313.22;5091016;28;20707;-63
2024/02/23 04:07:53;;;;;;;3.50;3.20;;;;;;;8.66;80.77;98317.59;5089343;28;20285;-59
2024/02/23 04:10:21;;;;;;;3.57;3.10;;;;;;;8.65;80.03;98318.50;5088545;28;20287;-59
2024/02/23 04:12:50;;;;;;;4.37;3.77;;;;;;;8.64;80.64;98316.78;5090329;28;20240;-64
2024/02/23 04:15:18;;;;;;;5.00;3.93;;;;;;;8.62;81.23;98323.72;5086486;28;20200;-62
2024/02/23 04:17:47;;;;;;;3.93;3.53;;;;;;;8.62;81.13;98322.88;5090160;28;20220;-59
2024/02/23 04:20:15;;;;;;;3.63;3.23;;;;;;;8.62;81.08;98326.28;5091035;28;20231;-61
2024/02/23 04:22:43;;;;;;;4.43;3.53;;;;;;;8.59;81.54;98316.09;5089894;28;20205;-60
2024/02/23 04:25:11;;;;;;;3.90;3.50;;;;;;;8.59;82.01;98315.25;5091577;28;20219;-63
2024/02/23 04:27:39;;;;;;;4.27;3.50;;;;;;;8.59;82.18;98326.38;5090884;28;20273;-60
2024/02/23 04:30:11;;;;;;;4.50;3.50;;;;;;;8.56;82.29;98329.03;5088365;28;20215;-61
2024/02/23 04:32:40;;;;;;;3.70;3.17;;;;;;;8.54;82.56;98328.22;5088289;28;20200;-61
2024/02/23 04:35:09;;;;;;;3.90;3.50;;;;;;;8.54;83.18;98338.50;5090364;28;20208;-62
2024/02/23 04:37:37;;;;;;;6.97;3.50;;;;;;;8.56;83.35;98330.75;5089042;28;20201;-59
2024/02/23 04:40:06;;;;;;;3.40;3.10;;;;;;;8.55;83.28;98332.50;5089689;28;20542;-63
2024/02/23 04:42:34;;;;;;;4.13;3.43;;;;;;;8.53;83.53;98329.13;5090901;28;20204;-59
2024/02/23 04:45:02;;;;;;;4.23;3.27;;;;;;;8.54;83.22;98333.34;5089661;28;20314;-60
2024/02/23 04:47:32;;;;;;;3.70;3.03;;;;;;;8.54;83.24;98328.22;5089338;28;20249;-60
2024/02/23 04:50:00;;;;;;;5.10;3.60;;;;;;;8.58;84.30;98334.09;5087052;28;20212;-63
2024/02/23 04:52:28;;;;;;;4.10;3.17;;;;;;;8.60;84.04;98338.31;5089910;28;20568;-62
2024/02/23 04:54:56;;;;;;;4.60;3.60;;;;;;;8.60;83.97;98347.75;5089697;28;20234;-64
2024/02/23 04:57:24;;;;;;;4.10;3.07;;;;;;;8.58;83.87;98354.63;5090127;28;20209;-61
2024/02/23 04:59:52;;;;;;;3.77;3.17;;;;;;;8.57;84.65;98353.81;5089132;28;20344;-62
2024/02/23 05:02:20;;;;;;;4.43;3.30;;;;;;;8.55;84.78;98355.59;5089585;28;20927;-61
2024/02/23 05:04:49;;;;;;;3.50;2.97;;;;;;;8.52;84.87;98354.84;5086494;28;20320;-60
2024/02/23 05:07:17;;;;;;;3.50;3.20;;;;;;;8.49;84.55;98363.47;5087906;28;20200;-62
2024/02/23 05:09:45;;;;;;;4.80;3.30;;;;;;;8.50;85.40;98365.13;5088832;28;20281;-63
2024/02/23 05:12:13;;;;;;;3.80;3.30;;;;;;;8.49;85.09;98363.47;5089816;28;20738;-64
2024/02/23 05:14:41;;;;;;;3.53;3.10;;;;;;;8.44;84.96;98361.06;5089869;28;20193;-61
2024/02/23 05:17:09;;;;;;;3.20;2.87;;;;;;;8.41;85.71;98357.72;5089798;28;20218;-61
2024/02/23 05:19:37;;;;;;;3.87;3.23;;;;;;;8.42;86.36;98369.66;5089777;28;20196;-60
2024/02/23 05:22:06;;;;;;;3.93;2.80;;;;;;;8.39;86.29;98369.75;5085555;28;20205;-61
2024/02/23 05:24:34;;;;;;;3.50;3.20;;;;;;;8.39;86.47;98380.84;5088001;28;20212;-61
2024/02/23 05:27:02;;;;;;;5.97;3.17;;;;;;;8.37;87.39;98374.06;5086910;28;20574;-61
2024/02/23 05:29:30;;;;;;;4.37;3.20;;;;;;;8.39;87.85;98380.03;5088894;28;20209;-61
2024/02/23 05:31:59;;;;;;;4.27;3.03;;;;;;;8.37;88.26;98376.66;5089662;28;20219;-61
2024/02/23 05:34:26;;;;;;;3.77;3.33;;;;;;;8.36;88.54;98388.63;5089161;28;20205;-64
2024/02/23 05:36:55;;;;;;;4.53;3.37;;;;;;;8.35;88.17;98383.53;5085666;28;20212;-62
2024/02/23 05:39:25;;;;;;;4.03;3.17;;;;;;;8.33;88.82;98390.47;5089025;28;20216;-62
2024/02/23 05:41:53;;;;;;;5.10;3.10;;;;;;;8.32;89.17;98387.06;5087445;28;20201;-61
2024/02/23 05:44:22;;;;;;;3.93;3.20;;;;;;;8.32;88.79;98389.63;5090857;28;20197;-61
2024/02/23 05:46:50;;;;;;;4.40;3.40;;;;;;;8.29;89.30;98399.13;5089741;28;20250;-62
2024/02/23 05:49:18;;;;;;;4.63;3.20;;;;;;;8.29;89.97;98407.66;5088322;28;20193;-63
2024/02/23 05:51:46;;;;;;;3.50;3.20;;;;;;;8.29;90.37;98401.69;5090256;28;20204;-63
2024/02/23 05:54:14;;;;;;;5.03;3.33;;;;;;;8.28;90.53;98415.38;5082683;28;20201;-62
2024/02/23 05:56:45;;;;;;;4.40;3.10;;;;;;;8.28;90.78;98402.56;5084201;28;20204;-61
2024/02/23 05:59:13;;;;;;;3.70;3.00;;;;;;;8.23;91.31;98395.84;5085519;28;20232;-64
2024/02/23 06:01:41;;;;;;;3.97;2.70;;;;;;;8.26;91.44;98414.59;5087694;28;20214;-60
2024/02/23 06:04:09;;;;;;;4.07;3.13;;;;;;;8.21;91.58;98410.44;5089971;28;20576;-69
2024/02/23 06:06:37;;;;;;;3.53;3.23;;;;;;;8.27;91.24;98429.09;5088489;28;20681;-61
2024/02/23 06:09:06;;;;;;;4.23;3.47;;;;;;;8.26;92.19;98435.13;5089023;28;20204;-61
2024/02/23 06:11:34;;;;;;;4.13;3.33;;;;;;;8.24;92.53;98435.16;5087098;28;20615;-61
2024/02/23 06:14:03;;;;;;;4.33;3.80;;;;;;;8.23;92.83;98431.75;5087358;28;20294;-62
2024/02/23 06:16:31;;;;;;;3.73;3.10;;;;;;;8.26;93.00;98437.69;5086395;28;20197;-60
2024/02/23 06:19:00;;;;;;;3.87;3.47;;;;;;;8.26;93.53;98435.97;5082723;28;20579;-60
2024/02/23 06:21:28;;;;;;;6.20;3.63;;;;;;;8.24;93.30;98437.72;5085122;28;20200;-61
2024/02/23 06:23:56;;;;;;;7.23;3.00;;;;;;;8.26;93.41;98446.22;5086811;28;20208;-59
2024/02/23 06:26:25;;;;;;;6.00;3.50;;;;;;;8.26;93.41;98447.97;5086043;28;20224;-63
2024/02/23 06:28:53;;;;;;;5.47;3.20;;;;;;;8.24;94.14;98448.81;5089752;28;20569;-61
2024/02/23 06:31:22;;;;;;;3.30;3.00;;;;;;;8.25;93.75;98444.56;5090099;28;20580;-62
2024/02/23 06:33:51;;;;;;;3.57;3.03;;;;;;;8.29;94.17;98456.41;5089041;28;20227;-62
2024/02/23 06:36:20;;;;;;;5.27;3.67;;;;;;;8.30;94.37;98457.25;5081861;28;20621;-61
2024/02/23 06:38:48;;;;;;;5.03;3.43;;;;;;;8.30;94.99;98463.22;5091289;28;20299;-64
2024/02/23 06:41:16;;;;;;;5.07;3.73;;;;;;;8.35;94.86;98470.78;5090062;28;20209;-63
2024/02/23 06:43:44;;;;;;;4.87;3.47;;;;;;;8.36;94.69;98467.34;5084521;28;20211;-60
2024/02/23 06:46:12;;;;;;;4.23;3.27;;;;;;;8.38;94.99;98470.75;5088732;28;20770;-60
2024/02/23 06:48:41;;;;;;;4.03;3.10;;;;;;;8.39;95.18;98472.41;5087746;28;20204;-63
2024/02/23 06:51:10;;;;;;;5.27;3.27;;;;;;;8.40;94.68;98479.25;5093043;28;20270;-58
2024/02/23 06:53:38;;;;;;;4.07;2.90;;;;;;;8.41;95.12;98473.22;5097531;28;20197;-62
2024/02/23 06:56:07;;;;;;;4.80;2.93;;;;;;;8.42;94.35;98472.31;5089030;28;20261;-63
2024/02/23 06:58:35;;;;;;;5.90;3.43;;;;;;;8.42;94.66;98477.47;5090035;28;20533;-62
2024/02/23 07:01:05;;;;;;;5.37;3.70;;;;;;;8.44;95.10;98484.25;5093037;28;20284;-61
2024/02/23 07:03:35;;;;;;;4.03;3.57;;;;;;;8.45;94.38;98490.22;5077865;28;20201;-63
2024/02/23 07:06:05;;;;;;;6.10;3.33;;;;;;;8.42;95.09;98493.69;5081422;28;20236;-63
2024/02/23 07:08:33;;;;;;;5.93;4.00;;;;;;;8.41;94.54;98492.03;5089647;28;20229;-63
2024/02/23 07:11:01;;;;;;;4.30;3.80;;;;;;;8.43;94.87;98502.25;5090708;28;20205;-62
2024/02/23 07:13:30;;;;;;;4.50;3.80;;;;;;;8.43;95.66;98497.97;5089263;28;20618;-62
2024/02/23 07:15:59;;;;;;;3.87;3.07;;;;;;;8.47;94.89;98514.13;5089719;28;20201;-62
2024/02/23 07:18:27;;;;;;;5.77;3.83;;;;;;;8.47;94.54;98509.00;5090058;28;20649;-66
2024/02/23 07:20:55;;;;;;;5.40;3.63;;;;;;;8.46;95.14;98509.84;5087758;28;20197;-61
2024/02/23 07:23:25;;;;;;;4.33;3.33;;;;;;;8.49;95.92;98519.22;5079370;28;20200;-61
2024/02/23 07:25:53;;;;;;;4.67;3.30;;;;;;;8.49;95.15;98522.63;5098406;28;20300;-62
2024/02/23 07:28:22;;;;;;;5.40;3.80;;;;;;;8.51;95.12;98525.16;5093659;28;20209;-64
2024/02/23 07:30:52;;;;;;;3.70;3.30;;;;;;;8.51;96.13;98523.44;5099948;27;20219;-61
2024/02/23 07:33:21;;;;;;;4.87;3.67;;;;;;;8.53;95.56;98524.22;5079353;28;20211;-63
2024/02/23 07:35:49;;;;;;;3.90;3.60;;;;;;;8.55;95.69;98527.59;5082197;28;20288;-62
2024/02/23 07:38:18;;;;;;;6.47;4.07;;;;;;;8.56;95.55;98531.81;5086812;28;20212;-58
2024/02/23 07:40:47;;;;;;;4.43;3.70;;;;;;;8.56;95.79;98525.84;5089129;28;20288;-59
2024/02/23 07:43:15;;;;;;;4.90;3.77;;;;;;;8.58;95.38;98530.06;5091373;28;20282;-59
2024/02/23 07:45:43;;;;;;;5.03;3.30;;;;;;;8.58;95.25;98539.47;5093160;28;20645;-58
2024/02/23 07:48:11;;;;;;;4.37;3.23;;;;;;;8.57;95.61;98538.63;5091771;28;20260;-62
2024/02/23 07:50:39;;;;;;;7.23;3.93;;;;;;;8.57;95.13;98550.63;5093083;28;20262;-61
2024/02/23 07:53:08;;;;;;;5.10;3.80;;;;;;;8.54;95.56;98548.97;5093055;28;20250;-59
2024/02/23 07:55:36;;;;;;;4.70;3.93;;;;;;;8.54;95.70;98550.72;5090444;28;20204;-59
2024/02/23 07:58:05;;;;;;;6.83;4.10;;;;;;;8.56;95.50;98560.06;5086239;28;20566;-59
2024/02/23 08:00:34;;;;;;;3.90;3.50;;;;;;;8.58;96.04;98565.16;5085575;28;20261;-64
2024/02/23 08:03:02;;;;;;;4.10;3.70;;;;;;;8.59;95.55;98565.13;5090403;28;20204;-59
2024/02/23 08:05:31;;;;;;;4.33;3.60;;;;;;;8.60;95.96;98565.97;5091731;28;20212;-59
2024/02/23 08:07:59;;;;;;;6.60;3.50;;;;;;;8.57;96.03;98577.16;5092683;28;20211;-59
2024/02/23 08:10:27;;;;;;;5.40;3.87;;;;;;;8.55;96.74;98573.78;5094848;28;20559;-60
2024/02/23 08:12:55;;;;;;;5.77;3.77;;;;;;;8.55;97.65;98578.09;5092229;28;20267;-58
2024/02/23 08:15:24;;;;;;;6.07;4.07;;;;;;;8.53;98.15;98583.25;5090224;28;20726;-59
2024/02/23 08:17:52;;;;;;;4.90;4.07;;;;;;;8.51;98.65;98579.91;5086009;28;20278;-60
2024/02/23 08:20:21;;;;;;;5.53;4.00;;;;;;;8.51;98.72;98584.19;5087827;28;20207;-58
2024/02/23 08:22:49;;;;;;;5.20;3.70;;;;;;;8.54;99.11;98577.22;5092654;28;20257;-61
2024/02/23 08:25:18;;;;;;;5.37;4.20;;;;;;;8.56;99.18;98590.88;5093036;28;20204;-61
2024/02/23 08:27:46;;;;;;;6.73;4.03;;;;;;;8.56;98.39;98588.31;5090502;28;20212;-59
2024/02/23 08:30:15;;;;;;;5.10;3.90;;;;;;;8.55;98.45;98594.34;5086047;28;20222;-59
2024/02/23 08:32:44;;;;;;;5.90;4.27;;;;;;;8.57;98.16;98594.28;5089499;28;20312;-60
2024/02/23 08:35:13;;;;;;;4.93;3.63;;;;;;;8.61;99.86;98594.16;5086552;28;20217;-60
2024/02/23 08:37:42;;;;;;;7.77;3.57;;;;;;;8.66;98.41;98592.31;5089218;28;20229;-62
2024/02/23 08:40:11;;;;;;;5.40;3.53;;;;;;;8.68;97.85;98602.53;5091866;28;20201;-60
2024/02/23 08:42:39;;;;;;;5.23;3.77;;;;;;;8.73;98.31;98599.84;5091919;28;20253;-57
2024/02/23 08:45:09;;;;;;;6.20;3.73;;;;;;;8.75;98.61;98608.34;5092029;28;20287;-58
2024/02/23 08:47:37;;;;;;;4.23;3.77;;;;;;;8.79;98.55;98617.66;5091822;28;20302;-60
2024/02/23 08:50:08;;;;;;;4.90;3.83;;;;;;;8.76;98.50;98616.00;5080710;28;20222;-61
2024/02/23 08:52:36;;;;;;;4.43;3.77;;;;;;;8.78;98.25;98623.69;5094887;28;20208;-59
2024/02/23 08:55:04;;;;;;;4.77;3.77;;;;;;;8.77;98.01;98625.41;5087823;28;20249;-59
2024/02/23 08:57:32;;;;;;;6.20;4.13;;;;;;;8.80;98.26;98627.03;5088105;28;20731;-66
2024/02/23 09:00:00;;;;;;;5.73;4.60;;;;;;;8.82;98.09;98625.28;5086061;28;20197;-58
2024/02/23 09:02:29;;;;;;;6.83;4.30;;;;;;;8.87;97.98;98638.81;5091916;28;20254;-57
2024/02/23 09:04:57;;;;;;;5.17;3.97;;;;;;;8.91;98.09;98635.28;5084343;28;20669;-58
2024/02/23 09:07:26;;;;;;;7.23;4.00;;;;;;;8.96;97.71;98633.44;5081772;28;20223;-57
2024/02/23 09:09:56;;;;;;;7.47;4.60;;;;;;;9.00;97.89;98640.19;5092025;28;20204;-60
2024/02/23 09:12:25;;;;;;;5.40;3.63;;;;;;;9.06;97.93;98634.88;5090809;28;20262;-58
2024/02/23 09:14:54;;;;;;;5.20;3.97;;;;;;;9.15;98.09;98636.34;5089733;28;20254;-60
2024/02/23 09:17:21;;;;;;;4.83;4.00;;;;;;;9.19;97.06;98649.06;5086055;28;20559;-59
2024/02/23 09:19:50;;;;;;;6.07;3.87;;;;;;;9.29;97.60;98644.50;5091153;28;20228;-58
2024/02/23 09:22:18;;;;;;;6.43;3.93;;;;;;;9.37;95.98;98649.41;5089668;28;20227;-58
2024/02/23 09:24:56;;;;;;;5.73;4.30;;;;;;;9.41;95.92;98648.44;5090020;28;20215;-60
2024/02/23 09:27:24;;;;;;;5.77;4.10;;;;;;;9.44;95.14;98650.94;5088677;28;20216;-61
2024/02/23 09:29:52;;;;;;;4.97;4.17;;;;;;;9.48;95.73;98660.22;5092605;28;20205;-59
2024/02/23 09:32:20;;;;;;;8.03;4.53;;;;;;;9.52;95.79;98654.09;5084767;28;20545;-57
2024/02/23 09:34:49;;;;;;;5.00;3.90;;;;;;;9.65;95.33;98657.16;5088427;28;20216;-60
2024/02/23 09:37:17;;;;;;;5.70;3.77;;;;;;;9.66;94.79;98657.09;5091624;28;20713;-59
2024/02/23 09:39:45;;;;;;;4.70;3.90;;;;;;;9.74;95.24;98663.75;5091255;28;20197;-58
2024/02/23 09:42:15;;;;;;;5.13;3.90;;;;;;;9.79;94.63;98667.00;5089884;28;20661;-60
2024/02/23 09:44:46;;;;;;;4.37;3.43;;;;;;;9.77;94.55;98672.22;5090931;28;20224;-57
2024/02/23 09:47:14;;;;;;;4.37;3.77;;;;;;;9.76;94.04;98672.28;5089853;28;20584;-61
2024/02/23 09:49:42;;;;;;;6.80;3.80;;;;;;;9.74;93.51;98671.47;5088455;28;20205;-57
2024/02/23 09:52:13;;;;;;;4.80;4.00;;;;;;;9.72;94.26;98679.25;5087361;28;20710;-59
2024/02/23 09:54:42;;;;;;;4.97;3.90;;;;;;;9.71;94.82;98682.69;5090470;28;20224;-60
2024/02/23 09:57:11;;;;;;;4.73;4.13;;;;;;;9.72;94.75;98683.53;5089977;28;20201;-58
2024/02/23 09:59:41;;;;;;;5.93;3.63;;;;;;;9.70;94.14;98690.47;5089962;28;20200;-59
2024/02/23 10:02:11;;;;;;;8.73;4.20;;;;;;;9.65;94.57;98696.59;5089381;28;20192;-58
2024/02/23 10:04:40;;;;;;;5.60;4.50;;;;;;;9.62;94.58;98685.53;5085246;28;20243;-58
2024/02/23 10:07:08;;;;;;;5.30;4.17;;;;;;;9.61;94.62;98691.56;5087735;28;20228;-61
2024/02/23 10:09:37;;;;;;;4.40;3.90;;;;;;;9.61;95.05;98683.84;5090402;28;20210;-58
2024/02/23 10:12:05;;;;;;;5.60;3.90;;;;;;;9.64;94.75;98687.16;5089111;28;20228;-58
2024/02/23 10:14:34;;;;;;;6.00;4.23;;;;;;;9.66;95.30;98685.41;5089739;28;20227;-61
2024/02/23 10:17:04;;;;;;;6.33;4.80;;;;;;;9.68;95.08;98696.50;5087936;28;20327;-59
2024/02/23 10:19:32;;;;;;;5.60;4.40;;;;;;;9.72;95.28;98706.66;5089725;28;20724;-59
2024/02/23 10:22:03;;;;;;;7.30;5.30;;;;;;;9.75;95.20;98704.00;5089186;28;20196;-63
2024/02/23 10:24:31;;;;;;;5.70;4.27;;;;;;;9.77;95.29;98710.81;5089574;28;20257;-59
2024/02/23 10:27:01;;;;;;;6.23;4.40;;;;;;;9.79;95.98;98708.19;5090574;28;20295;-59
2024/02/23 10:29:29;;;;;;;5.90;4.53;;;;;;;9.84;95.30;98711.47;5090414;28;20274;-59
2024/02/23 10:31:58;;;;;;;6.47;4.30;;;;;;;9.86;94.19;98717.41;5090494;28;20223;-60
2024/02/23 10:34:30;;;;;;;6.13;4.57;;;;;;;9.85;94.44;98715.72;5088935;28;20207;-62
2024/02/23 10:36:58;;;;;;;5.70;4.60;;;;;;;9.86;94.59;98719.97;5090966;28;20196;-59
2024/02/23 10:39:30;;;;;;;6.07;4.50;;;;;;;9.86;95.09;98722.53;5087511;28;20211;-60
2024/02/23 10:42:01;;;;;;;5.37;4.37;;;;;;;9.85;95.22;98728.59;5088783;28;20653;-62
2024/02/23 10:44:30;;;;;;;6.60;4.47;;;;;;;9.85;94.47;98738.88;5090366;28;20204;-65
2024/02/23 10:47:00;;;;;;;5.87;4.37;;;;;;;9.80;94.15;98736.44;5089026;28;20220;-61
2024/02/23 10:49:30;;;;;;;6.93;4.47;;;;;;;9.76;94.93;98734.84;5082336;28;20209;-62
2024/02/23 10:51:59;;;;;;;5.10;4.43;;;;;;;9.76;94.98;98737.41;5085533;28;20211;-64
2024/02/23 10:54:28;;;;;;;8.60;4.70;;;;;;;9.77;95.45;98743.41;5092650;28;20665;-61
2024/02/23 10:56:56;;;;;;;6.20;4.50;;;;;;;9.79;95.51;98744.19;5087752;28;20209;-63
2024/02/23 10:59:25;;;;;;;6.63;4.57;;;;;;;9.81;95.17;98750.16;5089516;28;20665;-64
2024/02/23 11:01:56;;;;;;;6.57;4.90;;;;;;;9.83;95.70;98756.06;5095066;28;20208;-61
2024/02/23 11:04:26;;;;;;;5.43;4.20;;;;;;;9.86;95.12;98758.56;5085925;28;20231;-61
2024/02/23 11:06:58;;;;;;;6.27;4.23;;;;;;;9.87;95.14;98758.53;5090558;28;20241;-64
2024/02/23 11:09:27;;;;;;;6.63;4.47;;;;;;;9.88;94.92;98759.38;5087320;28;20303;-63
2024/02/23 11:11:56;;;;;;;6.43;4.77;;;;;;;9.88;94.73;98761.94;5086667;28;20328;-62
2024/02/23 11:14:33;;;;;;;6.53;4.77;;;;;;;9.88;95.13;98754.22;5089678;28;20259;-66
2024/02/23 11:17:01;;;;;;;5.13;4.63;;;;;;;9.89;94.88;98768.75;5091019;28;20283;-63
2024/02/23 11:19:36;;;;;;;6.93;4.70;;;;;;;9.87;95.19;98770.56;5090539;28;20292;-65
2024/02/23 11:22:10;;;;;;;6.87;4.47;;;;;;;9.86;95.10;98767.13;5089881;28;20215;-64
2024/02/23 11:24:50;;;;;;;8.00;4.83;;;;;;;9.85;95.39;98777.47;5089231;28;20246;-65
2024/02/23 11:27:26;;;;;;;6.03;4.83;;;;;;;9.86;95.07;98777.41;5093614;28;20201;-63
2024/02/23 11:30:01;;;;;;;7.70;5.17;;;;;;;9.88;95.66;98780.78;5092366;28;20724;-66
2024/02/23 11:32:38;;;;;;;5.67;4.90;;;;;;;9.91;96.11;98780.72;5088567;28;20235;-64
2024/02/23 11:35:07;;;;;;;5.87;5.00;;;;;;;9.93;95.40;98778.06;5093409;28;20204;-64
2024/02/23 11:37:47;;;;;;;5.60;5.07;;;;;;;9.96;95.83;98783.13;5092825;28;20208;-62
2024/02/23 11:40:16;;;;;;;6.97;4.97;;;;;;;9.96;95.73;98797.72;5088079;28;20211;-64
2024/02/23 11:42:44;;;;;;;7.00;4.83;;;;;;;9.98;95.76;98795.94;5091060;28;20205;-63
2024/02/23 11:45:12;;;;;;;6.53;5.37;;;;;;;9.97;95.27;98801.97;5091270;28;20291;-64
2024/02/23 11:47:40;;;;;;;6.17;4.80;;;;;;;9.97;95.65;98807.13;5086351;28;20224;-63
2024/02/23 11:50:10;;;;;;;7.97;5.20;;;;;;;10.01;96.14;98807.00;5091652;28;20312;-63